createdAt,value
2022-11-26T00:00:51.547Z,43.45
2022-11-26T00:03:14.505Z,45.35
2022-11-26T00:05:36.844Z,46.90
2022-11-26T00:08:00.390Z,44.63
2022-11-26T00:10:26.167Z,42.58
2022-11-26T00:12:48.539Z,43.95
2022-11-26T00:15:26.344Z,39.90
2022-11-26T00:17:49.625Z,42.33
2022-11-26T00:22:42.329Z,40.10
2022-11-26T00:25:04.927Z,40.08
2022-11-26T00:27:27.774Z,38.13
2022-11-26T00:29:50.081Z,42.35
2022-11-26T00:32:20.835Z,40.58
2022-11-26T00:34:43.338Z,40.60
2022-11-26T00:37:05.601Z,40.15
2022-11-26T00:39:27.898Z,42.50
2022-11-26T00:41:51.169Z,38.47
2022-11-26T00:44:24.370Z,38.25
2022-11-26T00:46:46.810Z,36.22
2022-11-26T00:49:11.893Z,36.45
2022-11-26T00:51:34.187Z,35.20
2022-11-26T00:53:59.911Z,35.00
2022-11-26T00:56:22.427Z,35.78
2022-11-26T00:58:45.330Z,37.83
2022-11-26T01:01:09.110Z,35.13
2022-11-26T01:03:31.563Z,35.17
2022-11-26T01:05:55.742Z,34.53
2022-11-26T01:08:32.161Z,34.55
2022-11-26T01:10:54.461Z,35.65
2022-11-26T01:13:16.754Z,36.55
2022-11-26T01:15:39.058Z,36.80
2022-11-26T01:18:01.337Z,36.35
2022-11-26T01:20:30.143Z,36.03
2022-11-26T01:22:53.318Z,32.95
2022-11-26T01:27:37.885Z,33.10
2022-11-26T01:30:00.196Z,33.93
2022-11-26T01:32:28.012Z,35.95
2022-11-26T01:34:51.674Z,34.33
2022-11-26T01:37:14.285Z,34.23
2022-11-26T01:39:36.587Z,32.30
2022-11-26T01:42:30.460Z,34.80
2022-11-26T01:44:52.844Z,34.97
2022-11-26T01:47:27.234Z,34.97
2022-11-26T01:50:33.403Z,34.95
2022-11-26T01:53:46.104Z,34.00
2022-11-26T01:56:27.866Z,35.10
2022-11-26T01:59:05.240Z,34.17
2022-11-26T02:01:27.607Z,35.38
2022-11-26T02:04:16.878Z,36.78
2022-11-26T02:06:39.764Z,34.08
2022-11-26T02:09:04.302Z,38.20
2022-11-26T02:11:26.608Z,39.17
2022-11-26T02:13:50.895Z,38.97
2022-11-26T02:16:24.807Z,40.55
2022-11-26T02:18:56.805Z,42.30
2022-11-26T02:21:27.327Z,43.78
2022-11-26T02:24:17.598Z,43.35
2022-11-26T02:26:48.466Z,44.30
2022-11-26T02:29:26.326Z,47.08
2022-11-26T02:32:12.221Z,44.97
2022-11-26T02:34:46.270Z,40.83
2022-11-26T02:37:18.325Z,38.63
2022-11-26T02:39:40.620Z,38.25
2022-11-26T02:42:04.436Z,34.67
2022-11-26T02:44:55.246Z,34.03
2022-11-26T02:47:18.620Z,34.13
2022-11-26T02:49:41.384Z,36.22
2022-11-26T02:52:04.052Z,33.80
2022-11-26T02:54:26.530Z,36.25
2022-11-26T02:56:49.355Z,35.67
2022-11-26T02:59:12.916Z,36.05
2022-11-26T03:01:58.240Z,37.17
2022-11-26T03:04:23.950Z,35.38
2022-11-26T03:06:46.318Z,36.10
2022-11-26T03:09:08.642Z,38.13
2022-11-26T03:11:31.014Z,33.20
2022-11-26T03:13:53.369Z,34.90
2022-11-26T03:16:16.611Z,33.35
2022-11-26T03:21:01.202Z,29.98
2022-11-26T03:23:23.497Z,31.30
2022-11-26T03:25:45.776Z,31.67
2022-11-26T03:28:08.093Z,32.83
2022-11-26T03:30:30.364Z,33.65
2022-11-26T03:32:52.687Z,33.55
2022-11-26T03:35:15.005Z,36.38
2022-11-26T03:37:37.360Z,34.10
2022-11-26T03:39:59.802Z,32.30
2022-11-26T03:42:22.078Z,32.72
2022-11-26T03:44:44.410Z,33.05
2022-11-26T03:47:06.711Z,34.90
2022-11-26T03:49:29.053Z,35.58
2022-11-26T03:51:51.359Z,35.25
2022-11-26T03:54:13.636Z,34.40
2022-11-26T03:56:35.979Z,37.05
2022-11-26T03:58:58.258Z,37.25
2022-11-26T04:01:20.611Z,35.30
2022-11-26T04:03:42.922Z,36.70
2022-11-26T04:06:05.542Z,36.00
2022-11-26T04:08:27.879Z,38.70
2022-11-26T04:10:50.676Z,37.45
2022-11-26T04:13:12.950Z,35.17
2022-11-26T04:15:35.307Z,34.95
2022-11-26T04:17:57.621Z,35.03
2022-11-26T04:20:19.931Z,34.22
2022-11-26T04:22:42.192Z,35.88
2022-11-26T04:25:04.920Z,34.85
2022-11-26T04:27:27.215Z,34.53
2022-11-26T04:29:49.517Z,33.30
2022-11-26T04:32:11.879Z,34.95
2022-11-26T04:34:34.185Z,34.85
2022-11-26T04:36:56.486Z,35.42
2022-11-26T04:39:18.801Z,37.35
2022-11-26T04:41:42.950Z,35.22
2022-11-26T04:44:05.760Z,38.03
2022-11-26T04:46:28.102Z,34.85
2022-11-26T04:48:50.483Z,35.42
2022-11-26T04:51:12.783Z,35.67
2022-11-26T04:53:35.052Z,36.50
2022-11-26T04:55:57.372Z,34.03
2022-11-26T04:58:20.113Z,34.28
2022-11-26T05:00:42.981Z,37.97
2022-11-26T05:03:05.361Z,34.50
2022-11-26T05:05:27.691Z,37.33
2022-11-26T05:07:50.094Z,36.47
2022-11-26T05:10:12.941Z,36.85
2022-11-26T05:12:35.630Z,36.88
2022-11-26T05:14:57.966Z,35.10
2022-11-26T05:17:20.281Z,37.03
2022-11-26T05:19:42.601Z,37.47
2022-11-26T05:22:04.888Z,38.55
2022-11-26T05:24:27.185Z,37.20
2022-11-26T05:26:55.181Z,37.00
2022-11-26T05:29:19.075Z,38.17
2022-11-26T05:31:41.414Z,40.20
2022-11-26T05:34:03.806Z,37.58
2022-11-26T05:36:26.078Z,38.42
2022-11-26T05:38:48.364Z,40.10
2022-11-26T05:41:10.654Z,40.13
2022-11-26T05:43:32.966Z,40.00
2022-11-26T05:45:55.295Z,40.92
2022-11-26T05:48:17.686Z,42.70
2022-11-26T05:50:39.983Z,40.65
2022-11-26T05:53:02.391Z,38.58
2022-11-26T05:55:24.704Z,40.95
2022-11-26T05:57:47.035Z,41.25
2022-11-26T06:00:10.607Z,39.90
2022-11-26T06:02:32.996Z,37.58
2022-11-26T06:04:55.443Z,35.75
2022-11-26T06:07:17.823Z,36.42
2022-11-26T06:09:41.051Z,36.05
2022-11-26T06:12:03.738Z,38.28
2022-11-26T06:14:26.030Z,38.00
2022-11-26T06:16:48.474Z,38.47
2022-11-26T06:19:11.844Z,38.13
2022-11-26T06:21:34.161Z,36.50
2022-11-26T06:23:59.553Z,38.67
2022-11-26T06:26:22.212Z,36.17
2022-11-26T06:28:44.660Z,40.58
2022-11-26T06:31:08.836Z,36.22
2022-11-26T06:33:31.170Z,38.63
2022-11-26T06:35:53.456Z,37.80
2022-11-26T06:38:15.763Z,37.78
2022-11-26T06:40:38.068Z,38.00
2022-11-26T06:43:00.351Z,37.80
2022-11-26T06:45:23.079Z,38.25
2022-11-26T06:47:47.686Z,38.15
2022-11-26T06:50:11.020Z,37.28
2022-11-26T06:52:33.411Z,42.40
2022-11-26T06:54:55.775Z,38.03
2022-11-26T06:57:18.132Z,38.00
2022-11-26T06:59:40.436Z,39.45
2022-11-26T07:02:02.927Z,39.28
2022-11-26T07:04:25.294Z,40.47
2022-11-26T07:06:47.662Z,36.23
2022-11-26T07:09:10.388Z,39.42
2022-11-26T07:11:33.045Z,40.65
2022-11-26T07:13:55.356Z,38.50
2022-11-26T07:16:17.831Z,40.58
2022-11-26T07:18:40.213Z,38.65
2022-11-26T07:21:13.080Z,40.72
2022-11-26T07:23:35.455Z,40.92
2022-11-26T07:26:02.053Z,43.47
2022-11-26T07:28:24.340Z,40.97
2022-11-26T07:30:46.643Z,41.28
2022-11-26T07:33:08.930Z,41.78
2022-11-26T07:35:33.099Z,43.75
2022-11-26T07:37:55.624Z,45.20
2022-11-26T07:40:17.915Z,44.83
2022-11-26T07:42:40.218Z,41.90
2022-11-26T07:45:03.854Z,41.08
2022-11-26T07:47:26.226Z,43.05
2022-11-26T07:49:48.523Z,44.85
2022-11-26T07:52:10.806Z,44.17
2022-11-26T07:54:33.145Z,42.78
2022-11-26T07:56:55.416Z,43.80
2022-11-26T07:59:17.737Z,43.30
2022-11-26T08:01:40.120Z,44.72
2022-11-26T08:04:05.312Z,41.92
2022-11-26T08:06:30.033Z,40.97
2022-11-26T08:08:52.450Z,41.45
2022-11-26T08:11:20.027Z,42.58
2022-11-26T08:13:43.107Z,41.83
2022-11-26T08:16:05.662Z,42.88
2022-11-26T08:18:28.012Z,41.60
2022-11-26T08:20:57.457Z,42.30
2022-11-26T08:23:19.734Z,47.55
2022-11-26T08:26:05.981Z,49.93
2022-11-26T08:28:26.339Z,47.67
2022-11-26T08:30:28.371Z,47.95
2022-11-26T08:32:30.329Z,52.08
2022-11-26T08:34:33.223Z,62.65
2022-11-26T08:36:35.374Z,76.47
2022-11-26T08:38:37.543Z,73.13
2022-11-26T08:40:39.482Z,67.93
2022-11-26T08:42:41.520Z,62.58
2022-11-26T08:44:43.711Z,62.95
2022-11-26T08:46:46.284Z,62.58
2022-11-26T08:48:49.177Z,59.45
2022-11-26T08:50:52.044Z,63.67
2022-11-26T08:52:54.495Z,62.95
2022-11-26T08:54:57.510Z,55.10
2022-11-26T08:56:59.893Z,54.88
2022-11-26T09:01:16.505Z,44.47
2022-11-26T09:03:18.629Z,44.72
2022-11-26T09:05:20.789Z,46.85
2022-11-26T09:07:23.104Z,44.72
2022-11-26T09:11:54.161Z,40.00
2022-11-26T09:14:15.816Z,41.28
2022-11-26T09:16:38.516Z,41.20
2022-11-26T09:19:01.643Z,39.70
2022-11-26T09:21:23.983Z,40.95
2022-11-26T09:23:46.255Z,39.25
2022-11-26T09:26:08.632Z,38.17
2022-11-26T09:28:30.917Z,39.65
2022-11-26T09:30:58.531Z,39.77
2022-11-26T09:33:20.852Z,37.08
2022-11-26T09:35:43.164Z,35.63
2022-11-26T09:38:05.452Z,37.30
2022-11-26T09:40:54.086Z,36.67
2022-11-26T09:43:46.375Z,38.30
2022-11-26T09:46:09.678Z,37.80
2022-11-26T09:48:32.502Z,40.13
2022-11-26T09:51:03.067Z,42.10
2022-11-26T09:53:27.944Z,42.78
2022-11-26T09:55:52.001Z,45.08
2022-11-26T09:58:28.004Z,43.78
2022-11-26T10:00:52.703Z,45.63
2022-11-26T10:03:21.053Z,43.53
2022-11-26T10:06:21.524Z,42.90
2022-11-26T10:09:27.050Z,43.05
2022-11-26T10:12:25.870Z,44.15
2022-11-26T10:15:01.975Z,49.65
2022-11-26T10:17:57.677Z,50.58
2022-11-26T10:20:41.060Z,56.55
2022-11-26T10:23:12.331Z,59.90
2022-11-26T10:25:46.427Z,61.03
2022-11-26T10:28:52.280Z,55.92
2022-11-26T10:31:20.966Z,59.65
2022-11-26T10:34:03.812Z,60.13
2022-11-26T10:36:33.095Z,60.03
2022-11-26T10:38:58.436Z,56.30
2022-11-26T10:41:20.728Z,55.50
2022-11-26T10:43:43.034Z,56.77
2022-11-26T10:46:05.431Z,58.23
2022-11-26T10:48:29.855Z,57.38
2022-11-26T10:54:05.100Z,61.97
2022-11-26T10:56:46.904Z,66.13
2022-11-26T10:59:29.503Z,59.33
2022-11-26T11:01:56.328Z,66.60
2022-11-26T11:04:24.574Z,67.32
2022-11-26T11:06:47.028Z,68.88
2022-11-26T11:09:33.350Z,65.30
2022-11-26T11:12:13.891Z,64.80
2022-11-26T11:14:42.264Z,64.18
2022-11-26T11:17:05.196Z,60.10
2022-11-26T11:19:27.543Z,59.90
2022-11-26T11:21:49.836Z,61.28
2022-11-26T11:24:21.732Z,61.05
2022-11-26T11:26:46.611Z,57.80
2022-11-26T11:29:34.934Z,57.70
2022-11-26T11:31:57.877Z,57.20
2022-11-26T11:34:33.018Z,53.80
2022-11-26T11:37:16.059Z,56.15
2022-11-26T11:39:38.375Z,53.55
2022-11-26T11:41:47.156Z,54.88
2022-11-26T11:43:49.311Z,54.45
2022-11-26T11:46:11.131Z,52.53
2022-11-26T11:48:34.718Z,53.03
2022-11-26T11:53:20.326Z,48.20
2022-11-26T11:55:32.348Z,48.03
2022-11-26T11:58:06.516Z,47.90
2022-11-26T12:02:47.856Z,44.05
2022-11-26T12:05:12.071Z,42.97
2022-11-26T12:07:38.536Z,41.13
2022-11-26T12:09:51.564Z,46.20
2022-11-26T12:12:21.540Z,44.42
2022-11-26T12:14:43.225Z,41.40
2022-11-26T12:16:48.268Z,40.58
2022-11-26T12:19:04.736Z,42.35
2022-11-26T12:21:15.189Z,41.05
2022-11-26T12:23:33.236Z,40.30
2022-11-26T12:25:38.293Z,40.92
2022-11-26T12:28:00.354Z,41.55
2022-11-26T12:30:15.280Z,41.65
2022-11-26T12:32:48.778Z,42.50
2022-11-26T12:34:56.184Z,44.05
2022-11-26T12:37:01.709Z,45.35
2022-11-26T12:39:19.216Z,44.17
2022-11-26T12:41:34.077Z,44.95
2022-11-26T12:44:22.420Z,44.70
2022-11-26T12:46:50.439Z,46.22
2022-11-26T12:49:27.575Z,43.60
2022-11-26T12:51:45.949Z,44.55
2022-11-26T12:54:06.609Z,42.45
2022-11-26T12:56:55.157Z,44.75
2022-11-26T12:59:05.249Z,42.95
2022-11-26T13:02:05.287Z,42.85
2022-11-26T13:04:36.188Z,39.63
2022-11-26T13:07:02.888Z,38.70
2022-11-26T13:09:55.719Z,38.72
2022-11-26T13:12:25.857Z,36.65
2022-11-26T13:14:59.027Z,35.08
2022-11-26T13:17:09.901Z,36.30
2022-11-26T13:19:32.920Z,36.95
2022-11-26T13:22:00.487Z,34.13
2022-11-26T13:24:37.514Z,34.47
2022-11-26T13:27:23.227Z,36.30
2022-11-26T13:29:51.716Z,34.10
2022-11-26T13:32:33.014Z,36.38
2022-11-26T13:35:11.623Z,34.00
2022-11-26T13:37:56.558Z,36.03
2022-11-26T13:41:09.238Z,36.95
2022-11-26T13:44:06.932Z,43.67
2022-11-26T13:47:10.306Z,45.83
2022-11-26T13:49:56.869Z,44.65
2022-11-26T13:52:34.710Z,45.35
2022-11-26T13:55:07.390Z,45.28
2022-11-26T13:57:37.336Z,49.90
2022-11-26T13:59:55.799Z,46.60
2022-11-26T14:02:37.212Z,49.25
2022-11-26T14:04:58.009Z,50.47
2022-11-26T14:07:20.708Z,46.00
2022-11-26T14:09:43.030Z,43.75
2022-11-26T14:12:05.571Z,46.23
2022-11-26T14:14:27.780Z,46.53
2022-11-26T14:17:01.997Z,49.28
2022-11-26T14:19:49.208Z,47.72
2022-11-26T14:22:20.454Z,49.95
2022-11-26T14:24:48.645Z,53.17
2022-11-26T14:27:10.971Z,55.90
2022-11-26T14:29:33.368Z,49.57
2022-11-26T14:31:55.779Z,51.35
2022-11-26T14:34:23.484Z,51.83
2022-11-26T14:37:00.728Z,51.22
2022-11-26T14:39:23.028Z,50.25
2022-11-26T14:41:48.343Z,52.67
2022-11-26T14:44:15.765Z,49.45
2022-11-26T14:46:38.274Z,52.00
2022-11-26T14:49:00.577Z,50.38
2022-11-26T14:51:26.035Z,51.43
2022-11-26T14:53:48.822Z,49.08
2022-11-26T14:56:11.163Z,48.38
2022-11-26T14:58:37.965Z,44.45
2022-11-26T15:01:20.583Z,46.92
2022-11-26T15:03:43.058Z,47.05
2022-11-26T15:06:05.590Z,46.30
2022-11-26T15:08:27.969Z,49.60
2022-11-26T15:11:06.849Z,48.30
2022-11-26T15:13:44.040Z,44.83
2022-11-26T15:16:26.569Z,46.03
2022-11-26T15:18:48.881Z,46.47
2022-11-26T15:21:13.415Z,46.55
2022-11-26T15:23:39.497Z,43.35
2022-11-26T15:26:01.802Z,45.28
2022-11-26T15:28:24.378Z,43.17
2022-11-26T15:30:58.639Z,45.70
2022-11-26T15:33:21.001Z,45.10
2022-11-26T15:35:43.926Z,45.80
2022-11-26T15:38:16.575Z,48.15
2022-11-26T15:40:56.701Z,46.75
2022-11-26T15:43:29.336Z,48.63
2022-11-26T15:45:53.562Z,48.70
2022-11-26T15:48:58.549Z,48.63
2022-11-26T15:51:38.135Z,48.92
2022-11-26T15:54:01.297Z,47.67
2022-11-26T15:56:26.555Z,49.40
2022-11-26T15:58:52.971Z,50.58
2022-11-26T16:01:21.494Z,52.67
2022-11-26T16:03:46.663Z,49.95
2022-11-26T16:06:26.711Z,51.78
2022-11-26T16:09:28.229Z,47.90
2022-11-26T16:11:59.364Z,49.60
2022-11-26T16:14:32.664Z,49.63
2022-11-26T16:16:58.135Z,50.10
2022-11-26T16:19:22.677Z,52.03
2022-11-26T16:21:50.237Z,53.83
2022-11-26T16:24:38.777Z,54.95
2022-11-26T16:27:22.664Z,54.90
2022-11-26T16:29:45.397Z,53.22
2022-11-26T16:32:08.118Z,55.92
2022-11-26T16:34:30.435Z,56.85
2022-11-26T16:37:02.129Z,50.50
2022-11-26T16:39:27.511Z,55.20
2022-11-26T16:41:52.391Z,51.88
2022-11-26T16:44:14.892Z,54.13
2022-11-26T16:46:41.249Z,51.83
2022-11-26T16:49:04.245Z,47.85
2022-11-26T16:51:26.523Z,47.47
2022-11-26T16:53:49.021Z,48.70
2022-11-26T16:56:25.757Z,54.90
2022-11-26T16:58:48.044Z,46.42
2022-11-26T17:01:10.340Z,48.63
2022-11-26T17:03:33.476Z,48.87
2022-11-26T17:05:56.900Z,48.78
2022-11-26T17:10:41.473Z,50.53
2022-11-26T17:13:03.778Z,51.33
2022-11-26T17:15:26.488Z,52.53
2022-11-26T17:17:50.082Z,51.55
2022-11-26T17:20:17.476Z,51.95
2022-11-26T17:22:39.811Z,51.65
2022-11-26T17:25:02.139Z,49.57
2022-11-26T17:27:24.516Z,49.72
2022-11-26T17:29:47.133Z,49.47
2022-11-26T17:32:14.111Z,50.90
2022-11-26T17:34:36.441Z,48.33
2022-11-26T17:36:59.736Z,46.83
2022-11-26T17:39:22.092Z,48.95
2022-11-26T17:41:44.426Z,48.85
2022-11-26T17:44:06.735Z,50.73
2022-11-26T17:46:29.157Z,47.07
2022-11-26T17:48:56.889Z,45.53
2022-11-26T17:51:21.908Z,45.88
2022-11-26T17:53:44.303Z,44.80
2022-11-26T17:56:06.788Z,44.08
2022-11-26T17:58:29.086Z,44.15
2022-11-26T18:00:51.379Z,45.33
2022-11-26T18:03:13.649Z,44.50
2022-11-26T18:05:41.651Z,43.97
2022-11-26T18:08:04.728Z,45.05
2022-11-26T18:10:27.028Z,45.47
2022-11-26T18:12:49.674Z,44.00
2022-11-26T18:15:24.989Z,43.35
2022-11-26T18:17:50.726Z,43.72
2022-11-26T18:20:13.044Z,42.40
2022-11-26T18:22:35.390Z,45.60
2022-11-26T18:24:58.377Z,45.65
2022-11-26T18:27:22.100Z,45.42
2022-11-26T18:29:44.382Z,45.15
2022-11-26T18:32:06.678Z,45.40
2022-11-26T18:34:29.073Z,46.17
2022-11-26T18:36:53.889Z,50.53
2022-11-26T18:39:16.515Z,49.17
2022-11-26T18:41:38.839Z,49.07
2022-11-26T18:44:02.075Z,48.33
2022-11-26T18:46:24.602Z,50.95
2022-11-26T18:48:49.422Z,53.25
2022-11-26T18:51:12.129Z,52.42
2022-11-26T18:53:34.545Z,57.42
2022-11-26T18:55:56.974Z,52.88
2022-11-26T18:58:20.419Z,53.88
2022-11-26T19:00:42.926Z,51.47
2022-11-26T19:03:05.268Z,51.45
2022-11-26T19:05:27.655Z,50.55
2022-11-26T19:07:50.007Z,50.78
2022-11-26T19:10:12.594Z,54.28
2022-11-26T19:12:34.871Z,51.00
2022-11-26T19:14:57.184Z,52.97
2022-11-26T19:17:19.571Z,52.67
2022-11-26T19:19:42.331Z,55.83
2022-11-26T19:22:04.777Z,55.83
2022-11-26T19:24:27.118Z,57.17
2022-11-26T19:26:49.428Z,57.20
2022-11-26T19:29:12.539Z,58.10
2022-11-26T19:31:36.069Z,53.75
2022-11-26T19:33:58.457Z,52.92
2022-11-26T19:36:20.949Z,50.87
2022-11-26T19:38:44.261Z,50.40
2022-11-26T19:41:07.149Z,52.10
2022-11-26T19:43:32.905Z,47.53
2022-11-26T19:46:23.269Z,49.42
2022-11-26T19:48:47.008Z,48.70
2022-11-26T19:51:10.144Z,48.85
2022-11-26T19:53:32.671Z,50.42
2022-11-26T19:56:06.264Z,47.67
2022-11-26T19:58:29.148Z,50.50
2022-11-26T20:00:51.462Z,49.80
2022-11-26T20:03:13.939Z,48.63
2022-11-26T20:05:36.399Z,49.60
2022-11-26T20:07:58.731Z,47.63
2022-11-26T20:10:21.174Z,49.65
2022-11-26T20:12:43.452Z,46.22
2022-11-26T20:15:06.426Z,45.53
2022-11-26T20:17:28.729Z,45.28
2022-11-26T20:19:51.040Z,43.93
2022-11-26T20:22:14.294Z,46.13
2022-11-26T20:24:36.661Z,45.90
2022-11-26T20:26:59.178Z,46.43
2022-11-26T20:29:22.181Z,48.08
2022-11-26T20:31:46.832Z,47.05
2022-11-26T20:34:09.224Z,49.15
2022-11-26T20:36:31.718Z,49.07
2022-11-26T20:38:59.340Z,48.10
2022-11-26T20:41:22.208Z,46.58
2022-11-26T20:43:44.860Z,48.92
2022-11-26T20:46:07.780Z,45.75
2022-11-26T20:48:30.964Z,45.20
2022-11-26T20:50:53.243Z,46.28
2022-11-26T20:53:15.545Z,46.27
2022-11-26T20:55:37.861Z,45.27
2022-11-26T20:58:00.162Z,46.13
2022-11-26T21:00:27.342Z,48.47
2022-11-26T21:02:50.085Z,46.38
2022-11-26T21:05:13.924Z,48.17
2022-11-26T21:07:36.377Z,45.65
2022-11-26T21:09:59.133Z,45.45
2022-11-26T21:12:21.427Z,47.72
2022-11-26T21:14:43.724Z,47.33
2022-11-26T21:17:06.199Z,47.90
2022-11-26T21:19:28.642Z,46.45
2022-11-26T21:21:50.899Z,45.83
2022-11-26T21:24:14.594Z,44.60
2022-11-26T21:26:36.858Z,45.88
2022-11-26T21:29:00.191Z,46.42
2022-11-26T21:33:46.012Z,42.75
2022-11-26T21:36:16.018Z,46.28
2022-11-26T21:38:38.514Z,44.28
2022-11-26T21:41:16.307Z,44.45
2022-11-26T21:43:39.687Z,46.45
2022-11-26T21:46:06.564Z,46.17
2022-11-26T21:48:28.997Z,47.63
2022-11-26T21:51:25.605Z,46.70
2022-11-26T21:53:49.573Z,45.38
2022-11-26T21:56:17.920Z,45.17
2022-11-26T21:58:40.258Z,46.70
2022-11-26T22:01:19.781Z,46.30
2022-11-26T22:03:43.821Z,46.75
2022-11-26T22:06:06.769Z,45.78
2022-11-26T22:08:29.401Z,45.65
2022-11-26T22:10:51.706Z,45.78
2022-11-26T22:13:14.521Z,46.83
2022-11-26T22:15:36.870Z,43.10
2022-11-26T22:17:59.202Z,46.45
2022-11-26T22:20:21.506Z,46.17
2022-11-26T22:22:43.807Z,47.50
2022-11-26T22:25:06.515Z,44.63
2022-11-26T22:27:28.816Z,46.70
2022-11-26T22:29:51.298Z,46.70
2022-11-26T22:32:13.572Z,47.85
2022-11-26T22:34:36.131Z,48.27
2022-11-26T22:36:58.402Z,46.95
2022-11-26T22:39:20.737Z,48.33
2022-11-26T22:41:43.383Z,45.90
2022-11-26T22:44:05.716Z,45.67
2022-11-26T22:46:28.240Z,46.80
2022-11-26T22:48:58.836Z,47.15
2022-11-26T22:51:21.489Z,46.40
2022-11-26T22:53:43.852Z,46.30
2022-11-26T22:56:06.631Z,46.87
2022-11-26T22:58:29.199Z,44.35
2022-11-26T23:01:03.231Z,45.65
2022-11-26T23:03:27.275Z,45.83
2022-11-26T23:05:49.691Z,44.85
2022-11-26T23:08:12.244Z,44.63
2022-11-26T23:10:35.241Z,44.40
2022-11-26T23:12:57.564Z,43.70
2022-11-26T23:15:19.834Z,44.25
2022-11-26T23:17:42.141Z,45.67
2022-11-26T23:20:05.039Z,44.22
2022-11-26T23:22:27.338Z,44.40
2022-11-26T23:24:49.637Z,46.37
2022-11-26T23:27:11.948Z,43.53
2022-11-26T23:29:34.290Z,45.13
2022-11-26T23:31:56.657Z,45.55
2022-11-26T23:34:18.984Z,46.22
2022-11-26T23:36:41.259Z,44.55
2022-11-26T23:39:05.252Z,44.03
2022-11-26T23:41:28.250Z,44.60
2022-11-26T23:43:50.611Z,44.10
2022-11-26T23:46:25.855Z,46.25
2022-11-26T23:48:48.652Z,45.60
2022-11-26T23:51:16.776Z,45.55
2022-11-26T23:53:41.577Z,46.72
2022-11-26T23:56:06.043Z,46.10
2022-11-26T23:58:28.487Z,47.55
